sensor_id;sensor_type;location;lat;lon;timestamp;P1;durP1;ratioP1;P2;durP2;ratioP2
76157;SDS011;64907;51.574;6.502;2023-04-23T00:01:32;112.47;;;53.80;;
76157;SDS011;64907;51.574;6.502;2023-04-23T00:03:59;107.00;;;51.80;;
76157;SDS011;64907;51.574;6.502;2023-04-23T00:06:24;119.70;;;53.80;;
76157;SDS011;64907;51.574;6.502;2023-04-23T00:08:52;117.38;;;54.47;;
76157;SDS011;64907;51.574;6.502;2023-04-23T00:11:17;125.25;;;56.58;;
76157;SDS011;64907;51.574;6.502;2023-04-23T00:13:42;123.97;;;55.55;;
76157;SDS011;64907;51.574;6.502;2023-04-23T00:16:08;138.13;;;59.95;;
76157;SDS011;64907;51.574;6.502;2023-04-23T00:18:34;126.20;;;57.42;;
76157;SDS011;64907;51.574;6.502;2023-04-23T00:21:00;124.43;;;57.63;;
76157;SDS011;64907;51.574;6.502;2023-04-23T00:23:25;131.40;;;58.33;;
76157;SDS011;64907;51.574;6.502;2023-04-23T00:25:51;118.70;;;56.20;;
76157;SDS011;64907;51.574;6.502;2023-04-23T00:28:16;124.80;;;57.53;;
76157;SDS011;64907;51.574;6.502;2023-04-23T00:30:41;130.45;;;58.80;;
76157;SDS011;64907;51.574;6.502;2023-04-23T00:33:06;131.45;;;61.22;;
76157;SDS011;64907;51.574;6.502;2023-04-23T00:35:31;142.93;;;62.90;;
76157;SDS011;64907;51.574;6.502;2023-04-23T00:37:57;136.53;;;69.80;;
76157;SDS011;64907;51.574;6.502;2023-04-23T00:40:22;129.38;;;59.78;;
76157;SDS011;64907;51.574;6.502;2023-04-23T00:42:47;114.70;;;54.80;;
76157;SDS011;64907;51.574;6.502;2023-04-23T00:45:16;123.95;;;55.88;;
76157;SDS011;64907;51.574;6.502;2023-04-23T00:47:41;128.30;;;56.58;;
76157;SDS011;64907;51.574;6.502;2023-04-23T00:50:07;114.55;;;56.72;;
76157;SDS011;64907;51.574;6.502;2023-04-23T00:52:33;116.85;;;55.60;;
76157;SDS011;64907;51.574;6.502;2023-04-23T00:54:59;112.15;;;53.92;;
76157;SDS011;64907;51.574;6.502;2023-04-23T00:57:25;124.67;;;57.23;;
76157;SDS011;64907;51.574;6.502;2023-04-23T00:59:50;114.60;;;55.60;;
76157;SDS011;64907;51.574;6.502;2023-04-23T01:02:16;128.10;;;57.67;;
76157;SDS011;64907;51.574;6.502;2023-04-23T01:04:42;120.80;;;55.92;;
76157;SDS011;64907;51.574;6.502;2023-04-23T01:07:07;118.50;;;55.55;;
76157;SDS011;64907;51.574;6.502;2023-04-23T01:09:33;127.40;;;59.38;;
76157;SDS011;64907;51.574;6.502;2023-04-23T01:11:58;128.23;;;59.95;;
76157;SDS011;64907;51.574;6.502;2023-04-23T01:14:24;115.97;;;54.88;;
76157;SDS011;64907;51.574;6.502;2023-04-23T01:16:49;126.47;;;59.28;;
76157;SDS011;64907;51.574;6.502;2023-04-23T01:19:14;127.00;;;59.00;;
76157;SDS011;64907;51.574;6.502;2023-04-23T01:21:40;129.50;;;57.13;;
76157;SDS011;64907;51.574;6.502;2023-04-23T01:24:05;125.55;;;55.00;;
76157;SDS011;64907;51.574;6.502;2023-04-23T01:26:31;130.63;;;57.17;;
76157;SDS011;64907;51.574;6.502;2023-04-23T01:28:56;121.63;;;52.80;;
76157;SDS011;64907;51.574;6.502;2023-04-23T01:31:22;119.35;;;54.83;;
76157;SDS011;64907;51.574;6.502;2023-04-23T01:33:48;128.27;;;56.92;;
76157;SDS011;64907;51.574;6.502;2023-04-23T01:36:13;114.93;;;54.08;;
76157;SDS011;64907;51.574;6.502;2023-04-23T01:38:39;141.32;;;58.83;;
76157;SDS011;64907;51.574;6.502;2023-04-23T01:41:05;119.63;;;56.40;;
76157;SDS011;64907;51.574;6.502;2023-04-23T01:43:30;118.45;;;53.15;;
76157;SDS011;64907;51.574;6.502;2023-04-23T01:45:56;127.93;;;54.83;;
76157;SDS011;64907;51.574;6.502;2023-04-23T01:48:21;131.77;;;56.72;;
76157;SDS011;64907;51.574;6.502;2023-04-23T01:50:47;127.97;;;53.63;;
76157;SDS011;64907;51.574;6.502;2023-04-23T01:53:12;131.13;;;54.38;;
76157;SDS011;64907;51.574;6.502;2023-04-23T01:55:37;133.20;;;55.22;;
76157;SDS011;64907;51.574;6.502;2023-04-23T01:58:03;115.18;;;52.38;;
76157;SDS011;64907;51.574;6.502;2023-04-23T02:00:28;133.80;;;55.33;;
76157;SDS011;64907;51.574;6.502;2023-04-23T02:02:53;171.60;;;59.75;;
76157;SDS011;64907;51.574;6.502;2023-04-23T02:05:19;144.70;;;57.65;;
76157;SDS011;64907;51.574;6.502;2023-04-23T02:07:45;128.15;;;55.17;;
76157;SDS011;64907;51.574;6.502;2023-04-23T02:10:11;126.43;;;55.50;;
76157;SDS011;64907;51.574;6.502;2023-04-23T02:12:37;134.10;;;55.38;;
76157;SDS011;64907;51.574;6.502;2023-04-23T02:15:02;139.20;;;59.33;;
76157;SDS011;64907;51.574;6.502;2023-04-23T02:17:28;125.50;;;54.90;;
76157;SDS011;64907;51.574;6.502;2023-04-23T02:19:53;110.18;;;51.33;;
76157;SDS011;64907;51.574;6.502;2023-04-23T02:22:20;112.68;;;52.92;;
76157;SDS011;64907;51.574;6.502;2023-04-23T02:24:46;114.93;;;54.45;;
76157;SDS011;64907;51.574;6.502;2023-04-23T02:27:11;115.93;;;51.83;;
76157;SDS011;64907;51.574;6.502;2023-04-23T02:29:36;106.00;;;50.78;;
76157;SDS011;64907;51.574;6.502;2023-04-23T02:32:02;116.88;;;52.97;;
76157;SDS011;64907;51.574;6.502;2023-04-23T02:34:27;103.00;;;49.50;;
76157;SDS011;64907;51.574;6.502;2023-04-23T02:36:52;97.97;;;48.08;;
76157;SDS011;64907;51.574;6.502;2023-04-23T02:39:18;108.03;;;50.55;;
76157;SDS011;64907;51.574;6.502;2023-04-23T02:41:43;110.00;;;49.53;;
76157;SDS011;64907;51.574;6.502;2023-04-23T02:44:08;97.95;;;49.22;;
76157;SDS011;64907;51.574;6.502;2023-04-23T02:46:34;115.65;;;54.13;;
76157;SDS011;64907;51.574;6.502;2023-04-23T02:49:01;91.65;;;46.20;;
76157;SDS011;64907;51.574;6.502;2023-04-23T02:51:26;95.07;;;48.60;;
76157;SDS011;64907;51.574;6.502;2023-04-23T02:53:52;98.72;;;50.75;;
76157;SDS011;64907;51.574;6.502;2023-04-23T02:56:17;106.03;;;51.22;;
76157;SDS011;64907;51.574;6.502;2023-04-23T02:58:42;104.40;;;51.97;;
76157;SDS011;64907;51.574;6.502;2023-04-23T03:01:07;118.22;;;53.97;;
76157;SDS011;64907;51.574;6.502;2023-04-23T03:03:33;112.60;;;51.55;;
76157;SDS011;64907;51.574;6.502;2023-04-23T03:05:58;102.53;;;52.30;;
76157;SDS011;64907;51.574;6.502;2023-04-23T03:08:24;104.35;;;49.92;;
76157;SDS011;64907;51.574;6.502;2023-04-23T03:10:49;106.88;;;52.08;;
76157;SDS011;64907;51.574;6.502;2023-04-23T03:13:14;98.70;;;50.03;;
76157;SDS011;64907;51.574;6.502;2023-04-23T03:15:40;89.90;;;47.15;;
76157;SDS011;64907;51.574;6.502;2023-04-23T03:18:05;104.68;;;49.42;;
76157;SDS011;64907;51.574;6.502;2023-04-23T03:20:32;107.03;;;51.42;;
76157;SDS011;64907;51.574;6.502;2023-04-23T03:22:57;93.50;;;47.03;;
76157;SDS011;64907;51.574;6.502;2023-04-23T03:25:22;90.43;;;48.17;;
76157;SDS011;64907;51.574;6.502;2023-04-23T03:27:49;89.93;;;47.38;;
76157;SDS011;64907;51.574;6.502;2023-04-23T03:30:16;88.07;;;46.28;;
76157;SDS011;64907;51.574;6.502;2023-04-23T03:32:41;90.93;;;49.10;;
76157;SDS011;64907;51.574;6.502;2023-04-23T03:35:06;90.57;;;48.47;;
76157;SDS011;64907;51.574;6.502;2023-04-23T03:37:33;83.22;;;45.53;;
76157;SDS011;64907;51.574;6.502;2023-04-23T03:39:58;94.55;;;49.50;;
76157;SDS011;64907;51.574;6.502;2023-04-23T03:42:25;92.72;;;49.53;;
76157;SDS011;64907;51.574;6.502;2023-04-23T03:44:50;85.30;;;47.53;;
76157;SDS011;64907;51.574;6.502;2023-04-23T03:47:15;77.27;;;43.60;;
76157;SDS011;64907;51.574;6.502;2023-04-23T03:49:41;83.45;;;46.72;;
76157;SDS011;64907;51.574;6.502;2023-04-23T03:52:07;89.22;;;51.33;;
76157;SDS011;64907;51.574;6.502;2023-04-23T03:54:32;79.05;;;45.30;;
76157;SDS011;64907;51.574;6.502;2023-04-23T03:56:57;81.80;;;48.53;;
76157;SDS011;64907;51.574;6.502;2023-04-23T03:59:23;75.15;;;43.83;;
76157;SDS011;64907;51.574;6.502;2023-04-23T04:01:48;77.43;;;44.20;;
76157;SDS011;64907;51.574;6.502;2023-04-23T04:04:13;76.78;;;47.58;;
76157;SDS011;64907;51.574;6.502;2023-04-23T04:06:39;75.68;;;44.33;;
76157;SDS011;64907;51.574;6.502;2023-04-23T04:09:04;72.07;;;44.28;;
76157;SDS011;64907;51.574;6.502;2023-04-23T04:11:31;69.72;;;43.28;;
76157;SDS011;64907;51.574;6.502;2023-04-23T04:13:57;69.45;;;42.33;;
76157;SDS011;64907;51.574;6.502;2023-04-23T04:16:22;80.05;;;45.60;;
76157;SDS011;64907;51.574;6.502;2023-04-23T04:18:47;73.83;;;46.73;;
76157;SDS011;64907;51.574;6.502;2023-04-23T04:21:12;83.50;;;47.07;;
76157;SDS011;64907;51.574;6.502;2023-04-23T04:23:38;70.53;;;45.90;;
76157;SDS011;64907;51.574;6.502;2023-04-23T04:26:03;71.35;;;42.35;;
76157;SDS011;64907;51.574;6.502;2023-04-23T04:28:29;78.30;;;45.35;;
76157;SDS011;64907;51.574;6.502;2023-04-23T04:31:00;75.28;;;44.95;;
76157;SDS011;64907;51.574;6.502;2023-04-23T04:33:26;72.00;;;43.55;;
76157;SDS011;64907;51.574;6.502;2023-04-23T04:35:51;66.97;;;43.50;;
76157;SDS011;64907;51.574;6.502;2023-04-23T04:38:16;77.47;;;45.42;;
76157;SDS011;64907;51.574;6.502;2023-04-23T04:40:42;72.57;;;44.47;;
76157;SDS011;64907;51.574;6.502;2023-04-23T04:43:07;72.78;;;43.80;;
76157;SDS011;64907;51.574;6.502;2023-04-23T04:45:34;72.53;;;44.55;;
76157;SDS011;64907;51.574;6.502;2023-04-23T04:47:59;71.88;;;43.72;;
76157;SDS011;64907;51.574;6.502;2023-04-23T04:50:24;72.97;;;44.67;;
76157;SDS011;64907;51.574;6.502;2023-04-23T04:52:49;74.43;;;44.13;;
76157;SDS011;64907;51.574;6.502;2023-04-23T04:55:15;69.63;;;43.83;;
76157;SDS011;64907;51.574;6.502;2023-04-23T04:57:40;65.43;;;41.13;;
76157;SDS011;64907;51.574;6.502;2023-04-23T05:00:21;63.83;;;41.38;;
76157;SDS011;64907;51.574;6.502;2023-04-23T05:02:47;58.92;;;38.78;;
76157;SDS011;64907;51.574;6.502;2023-04-23T05:05:13;58.50;;;38.85;;
76157;SDS011;64907;51.574;6.502;2023-04-23T05:07:38;58.13;;;37.97;;
76157;SDS011;64907;51.574;6.502;2023-04-23T05:10:04;51.43;;;35.17;;
76157;SDS011;64907;51.574;6.502;2023-04-23T05:12:29;53.28;;;36.67;;
76157;SDS011;64907;51.574;6.502;2023-04-23T05:14:56;53.60;;;37.20;;
76157;SDS011;64907;51.574;6.502;2023-04-23T05:17:21;47.65;;;33.88;;
76157;SDS011;64907;51.574;6.502;2023-04-23T05:19:46;44.47;;;34.30;;
76157;SDS011;64907;51.574;6.502;2023-04-23T05:22:11;48.37;;;32.87;;
76157;SDS011;64907;51.574;6.502;2023-04-23T05:24:36;42.67;;;32.15;;
76157;SDS011;64907;51.574;6.502;2023-04-23T05:27:02;46.33;;;33.60;;
76157;SDS011;64907;51.574;6.502;2023-04-23T05:29:27;44.63;;;32.20;;
76157;SDS011;64907;51.574;6.502;2023-04-23T05:31:52;44.15;;;31.08;;
76157;SDS011;64907;51.574;6.502;2023-04-23T05:34:18;40.25;;;29.27;;
76157;SDS011;64907;51.574;6.502;2023-04-23T05:36:43;38.50;;;28.43;;
76157;SDS011;64907;51.574;6.502;2023-04-23T05:39:08;36.95;;;30.45;;
76157;SDS011;64907;51.574;6.502;2023-04-23T05:41:33;41.67;;;30.65;;
76157;SDS011;64907;51.574;6.502;2023-04-23T05:43:59;35.03;;;28.38;;
76157;SDS011;64907;51.574;6.502;2023-04-23T05:46:24;43.40;;;29.40;;
76157;SDS011;64907;51.574;6.502;2023-04-23T05:48:50;32.00;;;28.08;;
76157;SDS011;64907;51.574;6.502;2023-04-23T05:51:17;35.83;;;27.60;;
76157;SDS011;64907;51.574;6.502;2023-04-23T05:53:42;36.25;;;26.85;;
76157;SDS011;64907;51.574;6.502;2023-04-23T05:56:07;31.63;;;25.15;;
76157;SDS011;64907;51.574;6.502;2023-04-23T05:58:32;33.93;;;25.13;;
76157;SDS011;64907;51.574;6.502;2023-04-23T06:00:58;30.77;;;24.58;;
76157;SDS011;64907;51.574;6.502;2023-04-23T06:03:23;31.48;;;25.05;;
76157;SDS011;64907;51.574;6.502;2023-04-23T06:05:48;29.67;;;23.30;;
76157;SDS011;64907;51.574;6.502;2023-04-23T06:08:13;29.42;;;23.90;;
76157;SDS011;64907;51.574;6.502;2023-04-23T06:10:39;28.27;;;22.58;;
76157;SDS011;64907;51.574;6.502;2023-04-23T06:13:04;25.67;;;22.07;;
76157;SDS011;64907;51.574;6.502;2023-04-23T06:15:29;24.52;;;21.23;;
76157;SDS011;64907;51.574;6.502;2023-04-23T06:17:55;23.27;;;20.65;;
76157;SDS011;64907;51.574;6.502;2023-04-23T06:20:20;22.73;;;19.35;;
76157;SDS011;64907;51.574;6.502;2023-04-23T06:22:46;26.20;;;22.38;;
76157;SDS011;64907;51.574;6.502;2023-04-23T06:25:11;28.20;;;21.10;;
76157;SDS011;64907;51.574;6.502;2023-04-23T06:27:36;25.65;;;20.80;;
76157;SDS011;64907;51.574;6.502;2023-04-23T06:30:01;23.80;;;19.42;;
76157;SDS011;64907;51.574;6.502;2023-04-23T06:32:26;22.85;;;19.50;;
76157;SDS011;64907;51.574;6.502;2023-04-23T06:34:52;21.87;;;19.53;;
76157;SDS011;64907;51.574;6.502;2023-04-23T06:37:17;22.90;;;18.83;;
76157;SDS011;64907;51.574;6.502;2023-04-23T06:39:42;21.20;;;18.50;;
76157;SDS011;64907;51.574;6.502;2023-04-23T06:42:07;20.05;;;17.50;;
76157;SDS011;64907;51.574;6.502;2023-04-23T06:44:32;20.33;;;17.67;;
76157;SDS011;64907;51.574;6.502;2023-04-23T06:46:58;18.58;;;16.58;;
76157;SDS011;64907;51.574;6.502;2023-04-23T06:49:23;23.00;;;18.05;;
76157;SDS011;64907;51.574;6.502;2023-04-23T06:51:48;19.17;;;17.15;;
76157;SDS011;64907;51.574;6.502;2023-04-23T06:54:14;19.95;;;16.00;;
76157;SDS011;64907;51.574;6.502;2023-04-23T06:56:39;18.57;;;15.50;;
76157;SDS011;64907;51.574;6.502;2023-04-23T06:59:04;19.50;;;15.50;;
76157;SDS011;64907;51.574;6.502;2023-04-23T07:01:30;18.77;;;15.85;;
76157;SDS011;64907;51.574;6.502;2023-04-23T07:03:55;16.05;;;14.38;;
76157;SDS011;64907;51.574;6.502;2023-04-23T07:06:21;20.15;;;14.52;;
76157;SDS011;64907;51.574;6.502;2023-04-23T07:08:46;17.63;;;14.17;;
76157;SDS011;64907;51.574;6.502;2023-04-23T07:11:11;14.90;;;13.48;;
76157;SDS011;64907;51.574;6.502;2023-04-23T07:13:37;14.23;;;12.82;;
76157;SDS011;64907;51.574;6.502;2023-04-23T07:16:02;14.35;;;12.85;;
76157;SDS011;64907;51.574;6.502;2023-04-23T07:18:27;14.25;;;12.82;;
76157;SDS011;64907;51.574;6.502;2023-04-23T07:20:52;15.80;;;12.23;;
76157;SDS011;64907;51.574;6.502;2023-04-23T07:23:18;15.10;;;11.88;;
76157;SDS011;64907;51.574;6.502;2023-04-23T07:25:43;12.82;;;11.57;;
76157;SDS011;64907;51.574;6.502;2023-04-23T07:28:10;11.95;;;10.75;;
76157;SDS011;64907;51.574;6.502;2023-04-23T07:30:35;13.48;;;11.20;;
76157;SDS011;64907;51.574;6.502;2023-04-23T07:33:00;12.68;;;11.48;;
76157;SDS011;64907;51.574;6.502;2023-04-23T07:35:26;11.85;;;10.60;;
76157;SDS011;64907;51.574;6.502;2023-04-23T07:37:51;12.35;;;11.05;;
76157;SDS011;64907;51.574;6.502;2023-04-23T07:40:20;12.73;;;10.63;;
76157;SDS011;64907;51.574;6.502;2023-04-23T07:42:46;12.60;;;11.05;;
76157;SDS011;64907;51.574;6.502;2023-04-23T07:45:11;11.32;;;10.23;;
76157;SDS011;64907;51.574;6.502;2023-04-23T07:47:36;12.38;;;11.00;;
76157;SDS011;64907;51.574;6.502;2023-04-23T07:50:03;10.38;;;9.07;;
76157;SDS011;64907;51.574;6.502;2023-04-23T07:52:28;11.25;;;9.93;;
76157;SDS011;64907;51.574;6.502;2023-04-23T07:54:55;11.18;;;9.85;;
76157;SDS011;64907;51.574;6.502;2023-04-23T07:57:28;11.68;;;8.35;;
76157;SDS011;64907;51.574;6.502;2023-04-23T07:59:53;9.10;;;8.30;;
76157;SDS011;64907;51.574;6.502;2023-04-23T08:02:18;9.48;;;8.23;;
76157;SDS011;64907;51.574;6.502;2023-04-23T08:04:47;11.48;;;9.52;;
76157;SDS011;64907;51.574;6.502;2023-04-23T08:07:12;8.43;;;7.65;;
76157;SDS011;64907;51.574;6.502;2023-04-23T08:09:37;14.67;;;8.13;;
76157;SDS011;64907;51.574;6.502;2023-04-23T08:12:03;11.30;;;7.93;;
76157;SDS011;64907;51.574;6.502;2023-04-23T08:14:30;8.23;;;7.43;;
76157;SDS011;64907;51.574;6.502;2023-04-23T08:16:55;7.85;;;6.90;;
76157;SDS011;64907;51.574;6.502;2023-04-23T08:19:21;8.00;;;7.20;;
76157;SDS011;64907;51.574;6.502;2023-04-23T08:21:46;7.80;;;6.47;;
76157;SDS011;64907;51.574;6.502;2023-04-23T08:24:12;8.52;;;6.43;;
76157;SDS011;64907;51.574;6.502;2023-04-23T08:26:37;8.67;;;6.27;;
76157;SDS011;64907;51.574;6.502;2023-04-23T08:29:02;6.60;;;5.37;;
76157;SDS011;64907;51.574;6.502;2023-04-23T08:31:29;8.25;;;5.07;;
76157;SDS011;64907;51.574;6.502;2023-04-23T08:33:54;6.28;;;5.63;;
76157;SDS011;64907;51.574;6.502;2023-04-23T08:36:19;6.72;;;5.30;;
76157;SDS011;64907;51.574;6.502;2023-04-23T08:38:45;6.07;;;5.57;;
76157;SDS011;64907;51.574;6.502;2023-04-23T08:41:10;6.05;;;5.47;;
76157;SDS011;64907;51.574;6.502;2023-04-23T08:43:37;5.55;;;5.00;;
76157;SDS011;64907;51.574;6.502;2023-04-23T08:46:05;7.80;;;4.95;;
76157;SDS011;64907;51.574;6.502;2023-04-23T08:48:33;5.65;;;4.13;;
76157;SDS011;64907;51.574;6.502;2023-04-23T08:50:58;9.98;;;4.72;;
76157;SDS011;64907;51.574;6.502;2023-04-23T08:53:26;5.03;;;4.55;;
76157;SDS011;64907;51.574;6.502;2023-04-23T08:55:56;9.48;;;4.47;;
76157;SDS011;64907;51.574;6.502;2023-04-23T08:58:21;5.70;;;3.72;;
76157;SDS011;64907;51.574;6.502;2023-04-23T09:00:47;5.00;;;3.80;;
76157;SDS011;64907;51.574;6.502;2023-04-23T09:03:14;4.30;;;3.00;;
76157;SDS011;64907;51.574;6.502;2023-04-23T09:05:40;6.68;;;3.60;;
76157;SDS011;64907;51.574;6.502;2023-04-23T09:08:06;5.68;;;3.65;;
76157;SDS011;64907;51.574;6.502;2023-04-23T09:10:31;8.27;;;4.10;;
76157;SDS011;64907;51.574;6.502;2023-04-23T09:12:56;4.35;;;3.20;;
76157;SDS011;64907;51.574;6.502;2023-04-23T09:15:22;8.07;;;3.80;;
76157;SDS011;64907;51.574;6.502;2023-04-23T09:17:47;4.63;;;3.28;;
76157;SDS011;64907;51.574;6.502;2023-04-23T09:20:14;6.35;;;3.20;;
76157;SDS011;64907;51.574;6.502;2023-04-23T09:22:49;9.23;;;3.60;;
76157;SDS011;64907;51.574;6.502;2023-04-23T09:25:17;6.18;;;3.30;;
76157;SDS011;64907;51.574;6.502;2023-04-23T09:27:43;4.40;;;2.70;;
76157;SDS011;64907;51.574;6.502;2023-04-23T09:30:09;4.95;;;3.15;;
76157;SDS011;64907;51.574;6.502;2023-04-23T09:32:35;9.55;;;3.45;;
76157;SDS011;64907;51.574;6.502;2023-04-23T09:35:02;5.32;;;3.00;;
76157;SDS011;64907;51.574;6.502;2023-04-23T09:37:27;3.55;;;2.47;;
76157;SDS011;64907;51.574;6.502;2023-04-23T09:39:53;3.17;;;2.53;;
76157;SDS011;64907;51.574;6.502;2023-04-23T09:42:22;7.63;;;3.45;;
76157;SDS011;64907;51.574;6.502;2023-04-23T09:44:53;5.75;;;2.65;;
76157;SDS011;64907;51.574;6.502;2023-04-23T09:47:19;6.70;;;2.78;;
76157;SDS011;64907;51.574;6.502;2023-04-23T09:49:45;5.72;;;3.08;;
76157;SDS011;64907;51.574;6.502;2023-04-23T09:52:11;7.55;;;2.53;;
76157;SDS011;64907;51.574;6.502;2023-04-23T09:54:37;3.70;;;2.40;;
76157;SDS011;64907;51.574;6.502;2023-04-23T09:57:03;6.60;;;2.22;;
76157;SDS011;64907;51.574;6.502;2023-04-23T09:59:31;4.85;;;2.45;;
76157;SDS011;64907;51.574;6.502;2023-04-23T10:01:56;5.80;;;2.58;;
76157;SDS011;64907;51.574;6.502;2023-04-23T10:04:27;6.45;;;2.58;;
76157;SDS011;64907;51.574;6.502;2023-04-23T10:06:53;6.28;;;2.53;;
76157;SDS011;64907;51.574;6.502;2023-04-23T10:09:19;4.47;;;2.40;;
76157;SDS011;64907;51.574;6.502;2023-04-23T10:11:49;11.80;;;2.70;;
76157;SDS011;64907;51.574;6.502;2023-04-23T10:14:15;7.20;;;1.77;;
76157;SDS011;64907;51.574;6.502;2023-04-23T10:16:41;3.78;;;2.22;;
76157;SDS011;64907;51.574;6.502;2023-04-23T10:19:08;4.70;;;2.55;;
76157;SDS011;64907;51.574;6.502;2023-04-23T10:21:35;4.05;;;2.35;;
76157;SDS011;64907;51.574;6.502;2023-04-23T10:24:00;10.07;;;2.38;;
76157;SDS011;64907;51.574;6.502;2023-04-23T10:26:26;3.20;;;2.08;;
76157;SDS011;64907;51.574;6.502;2023-04-23T10:28:53;4.88;;;2.40;;
76157;SDS011;64907;51.574;6.502;2023-04-23T10:33:48;2.72;;;1.83;;
76157;SDS011;64907;51.574;6.502;2023-04-23T10:36:14;5.65;;;2.05;;
76157;SDS011;64907;51.574;6.502;2023-04-23T10:38:40;6.13;;;1.98;;
76157;SDS011;64907;51.574;6.502;2023-04-23T10:41:06;4.65;;;2.13;;
76157;SDS011;64907;51.574;6.502;2023-04-23T10:43:32;5.88;;;2.13;;
76157;SDS011;64907;51.574;6.502;2023-04-23T10:45:58;6.68;;;1.88;;
76157;SDS011;64907;51.574;6.502;2023-04-23T10:48:26;3.10;;;1.80;;
76157;SDS011;64907;51.574;6.502;2023-04-23T10:50:56;3.20;;;1.88;;
76157;SDS011;64907;51.574;6.502;2023-04-23T10:53:21;10.52;;;2.20;;
76157;SDS011;64907;51.574;6.502;2023-04-23T10:55:46;4.65;;;1.90;;
76157;SDS011;64907;51.574;6.502;2023-04-23T10:58:12;5.50;;;2.17;;
76157;SDS011;64907;51.574;6.502;2023-04-23T11:03:25;1.88;;;1.52;;
76157;SDS011;64907;51.574;6.502;2023-04-23T11:05:51;4.72;;;1.90;;
76157;SDS011;64907;51.574;6.502;2023-04-23T11:08:16;5.75;;;1.60;;
76157;SDS011;64907;51.574;6.502;2023-04-23T11:10:53;3.63;;;2.00;;
76157;SDS011;64907;51.574;6.502;2023-04-23T11:13:27;3.63;;;1.90;;
76157;SDS011;64907;51.574;6.502;2023-04-23T11:18:56;5.90;;;2.58;;
76157;SDS011;64907;51.574;6.502;2023-04-23T11:21:21;6.30;;;1.95;;
76157;SDS011;64907;51.574;6.502;2023-04-23T11:23:47;3.73;;;1.80;;
76157;SDS011;64907;51.574;6.502;2023-04-23T11:26:14;6.37;;;2.20;;
76157;SDS011;64907;51.574;6.502;2023-04-23T11:28:42;4.55;;;2.00;;
76157;SDS011;64907;51.574;6.502;2023-04-23T11:31:08;4.35;;;1.60;;
76157;SDS011;64907;51.574;6.502;2023-04-23T11:33:36;3.13;;;1.77;;
76157;SDS011;64907;51.574;6.502;2023-04-23T11:36:02;3.17;;;1.90;;
76157;SDS011;64907;51.574;6.502;2023-04-23T11:38:31;1.80;;;1.35;;
76157;SDS011;64907;51.574;6.502;2023-04-23T11:40:57;3.58;;;1.60;;
76157;SDS011;64907;51.574;6.502;2023-04-23T11:43:25;2.08;;;1.88;;
76157;SDS011;64907;51.574;6.502;2023-04-23T11:45:53;4.85;;;1.70;;
76157;SDS011;64907;51.574;6.502;2023-04-23T11:48:18;4.18;;;1.85;;
76157;SDS011;64907;51.574;6.502;2023-04-23T11:50:44;7.05;;;1.83;;
76157;SDS011;64907;51.574;6.502;2023-04-23T11:53:10;5.53;;;1.90;;
76157;SDS011;64907;51.574;6.502;2023-04-23T11:55:35;4.32;;;2.00;;
76157;SDS011;64907;51.574;6.502;2023-04-23T11:58:02;3.42;;;1.60;;
76157;SDS011;64907;51.574;6.502;2023-04-23T12:00:27;4.20;;;1.80;;
76157;SDS011;64907;51.574;6.502;2023-04-23T12:02:53;2.53;;;1.70;;
76157;SDS011;64907;51.574;6.502;2023-04-23T12:05:19;3.00;;;1.98;;
76157;SDS011;64907;51.574;6.502;2023-04-23T12:07:51;3.95;;;1.73;;
76157;SDS011;64907;51.574;6.502;2023-04-23T12:10:20;3.65;;;1.95;;
76157;SDS011;64907;51.574;6.502;2023-04-23T12:12:49;2.90;;;1.52;;
76157;SDS011;64907;51.574;6.502;2023-04-23T12:15:15;2.47;;;1.20;;
76157;SDS011;64907;51.574;6.502;2023-04-23T12:17:41;3.72;;;1.58;;
76157;SDS011;64907;51.574;6.502;2023-04-23T12:20:08;3.15;;;1.50;;
76157;SDS011;64907;51.574;6.502;2023-04-23T12:22:34;2.72;;;1.77;;
76157;SDS011;64907;51.574;6.502;2023-04-23T12:25:03;2.22;;;1.40;;
76157;SDS011;64907;51.574;6.502;2023-04-23T12:27:31;1.45;;;1.35;;
76157;SDS011;64907;51.574;6.502;2023-04-23T12:29:58;2.40;;;1.45;;
76157;SDS011;64907;51.574;6.502;2023-04-23T12:32:23;2.65;;;1.23;;
76157;SDS011;64907;51.574;6.502;2023-04-23T12:34:52;3.60;;;1.60;;
76157;SDS011;64907;51.574;6.502;2023-04-23T12:37:22;3.70;;;1.38;;
76157;SDS011;64907;51.574;6.502;2023-04-23T12:39:47;3.65;;;1.45;;
76157;SDS011;64907;51.574;6.502;2023-04-23T12:42:13;4.20;;;1.50;;
76157;SDS011;64907;51.574;6.502;2023-04-23T12:44:38;6.05;;;2.00;;
76157;SDS011;64907;51.574;6.502;2023-04-23T12:47:07;1.27;;;1.15;;
76157;SDS011;64907;51.574;6.502;2023-04-23T12:49:33;1.92;;;1.30;;
76157;SDS011;64907;51.574;6.502;2023-04-23T12:51:59;2.58;;;1.30;;
76157;SDS011;64907;51.574;6.502;2023-04-23T12:54:37;1.75;;;1.60;;
76157;SDS011;64907;51.574;6.502;2023-04-23T12:57:03;2.28;;;1.20;;
76157;SDS011;64907;51.574;6.502;2023-04-23T12:59:29;3.60;;;1.40;;
76157;SDS011;64907;51.574;6.502;2023-04-23T13:01:55;1.77;;;1.42;;
76157;SDS011;64907;51.574;6.502;2023-04-23T13:04:20;3.95;;;1.48;;
76157;SDS011;64907;51.574;6.502;2023-04-23T13:06:45;4.00;;;1.60;;
76157;SDS011;64907;51.574;6.502;2023-04-23T13:09:11;2.53;;;1.40;;
76157;SDS011;64907;51.574;6.502;2023-04-23T13:11:39;1.48;;;1.38;;
76157;SDS011;64907;51.574;6.502;2023-04-23T13:14:05;2.60;;;1.35;;
76157;SDS011;64907;51.574;6.502;2023-04-23T13:16:33;1.80;;;1.30;;
76157;SDS011;64907;51.574;6.502;2023-04-23T13:18:59;1.27;;;1.10;;
76157;SDS011;64907;51.574;6.502;2023-04-23T13:21:24;3.63;;;1.58;;
76157;SDS011;64907;51.574;6.502;2023-04-23T13:23:49;2.67;;;1.30;;
76157;SDS011;64907;51.574;6.502;2023-04-23T13:26:14;1.40;;;1.30;;
76157;SDS011;64907;51.574;6.502;2023-04-23T13:28:40;6.72;;;1.40;;
76157;SDS011;64907;51.574;6.502;2023-04-23T13:31:05;1.98;;;1.33;;
76157;SDS011;64907;51.574;6.502;2023-04-23T13:33:31;1.35;;;1.23;;
76157;SDS011;64907;51.574;6.502;2023-04-23T13:35:57;3.60;;;1.92;;
76157;SDS011;64907;51.574;6.502;2023-04-23T13:38:23;2.85;;;1.30;;
76157;SDS011;64907;51.574;6.502;2023-04-23T13:40:48;1.15;;;1.00;;
76157;SDS011;64907;51.574;6.502;2023-04-23T13:43:13;2.63;;;1.23;;
76157;SDS011;64907;51.574;6.502;2023-04-23T13:45:38;2.03;;;1.08;;
76157;SDS011;64907;51.574;6.502;2023-04-23T13:48:04;2.58;;;1.23;;
76157;SDS011;64907;51.574;6.502;2023-04-23T13:50:31;3.80;;;1.35;;
76157;SDS011;64907;51.574;6.502;2023-04-23T13:52:56;1.77;;;1.63;;
76157;SDS011;64907;51.574;6.502;2023-04-23T13:55:22;1.97;;;1.40;;
76157;SDS011;64907;51.574;6.502;2023-04-23T13:57:47;3.53;;;1.40;;
76157;SDS011;64907;51.574;6.502;2023-04-23T14:00:12;1.92;;;1.30;;
76157;SDS011;64907;51.574;6.502;2023-04-23T14:02:38;3.10;;;1.40;;
76157;SDS011;64907;51.574;6.502;2023-04-23T14:05:03;3.77;;;1.70;;
76157;SDS011;64907;51.574;6.502;2023-04-23T14:07:30;1.67;;;1.20;;
76157;SDS011;64907;51.574;6.502;2023-04-23T14:09:56;2.30;;;1.15;;
76157;SDS011;64907;51.574;6.502;2023-04-23T14:12:21;1.27;;;1.20;;
76157;SDS011;64907;51.574;6.502;2023-04-23T14:14:48;0.90;;;0.90;;
76157;SDS011;64907;51.574;6.502;2023-04-23T14:17:13;3.47;;;1.27;;
76157;SDS011;64907;51.574;6.502;2023-04-23T14:19:38;1.40;;;1.30;;
76157;SDS011;64907;51.574;6.502;2023-04-23T14:22:04;3.08;;;1.52;;
76157;SDS011;64907;51.574;6.502;2023-04-23T14:24:33;1.38;;;1.20;;
76157;SDS011;64907;51.574;6.502;2023-04-23T14:27:02;1.83;;;1.20;;
76157;SDS011;64907;51.574;6.502;2023-04-23T14:29:34;1.58;;;1.08;;
76157;SDS011;64907;51.574;6.502;2023-04-23T14:31:59;4.75;;;1.30;;